createdAt,value
2019-04-01T00:00:51.550Z,-0.11
2019-04-01T00:03:59.273Z,-0.22
2019-04-01T00:07:06.345Z,-0.27
2019-04-01T00:10:13.605Z,-0.28
2019-04-01T00:13:21.314Z,-0.33
2019-04-01T00:16:28.486Z,-0.33
2019-04-01T00:19:35.479Z,-0.10
2019-04-01T00:22:42.838Z,-0.10
2019-04-01T00:25:49.795Z,0.13
2019-04-01T00:28:56.930Z,0.27
2019-04-01T00:32:04.097Z,0.32
2019-04-01T00:35:12.213Z,0.40
2019-04-01T00:38:18.722Z,0.52
2019-04-01T00:41:25.424Z,0.81
2019-04-01T00:44:32.242Z,0.91
2019-04-01T00:47:39.285Z,1.00
2019-04-01T00:50:46.304Z,1.22
2019-04-01T00:53:53.318Z,1.35
2019-04-01T00:57:00.600Z,1.47
2019-04-01T01:00:08.844Z,1.60
2019-04-01T01:03:16.333Z,1.60
2019-04-01T01:06:24.286Z,1.73
2019-04-01T01:09:31.546Z,1.88
2019-04-01T01:12:40.407Z,1.92
2019-04-01T01:15:47.369Z,1.92
2019-04-01T01:18:54.288Z,1.83
2019-04-01T01:22:01.326Z,1.76
2019-04-01T01:25:08.316Z,1.65
2019-04-01T01:28:14.863Z,1.65
2019-04-01T01:31:22.093Z,1.64
2019-04-01T01:34:29.360Z,1.65
2019-04-01T01:37:36.159Z,1.66
2019-04-01T01:40:43.040Z,1.48
2019-04-01T01:43:51.738Z,1.49
2019-04-01T01:46:59.950Z,1.50
2019-04-01T01:50:08.582Z,1.42
2019-04-01T01:53:15.607Z,1.34
2019-04-01T01:56:22.573Z,1.02
2019-04-01T01:59:30.068Z,0.99
2019-04-01T02:02:36.960Z,0.99
2019-04-01T02:05:43.946Z,0.86
2019-04-01T02:08:50.989Z,0.71
2019-04-01T02:11:58.492Z,0.59
2019-04-01T02:15:07.312Z,0.47
2019-04-01T02:18:14.280Z,0.36
2019-04-01T02:21:21.810Z,0.21
2019-04-01T02:24:29.322Z,0.14
2019-04-01T02:27:36.838Z,0.04
2019-04-01T02:30:44.268Z,-0.01
2019-04-01T02:33:51.556Z,-0.12
2019-04-01T02:36:58.722Z,-0.23
2019-04-01T02:40:07.568Z,-0.23
2019-04-01T02:43:16.310Z,-0.29
2019-04-01T02:46:25.264Z,-0.38
2019-04-01T02:49:32.334Z,-0.42
2019-04-01T02:52:38.805Z,-0.51
2019-04-01T02:55:46.290Z,-0.55
2019-04-01T02:58:53.354Z,-0.61
2019-04-01T03:02:00.439Z,-0.68
2019-04-01T03:05:08.281Z,-0.76
2019-04-01T03:08:15.261Z,-0.82
2019-04-01T03:11:22.377Z,-0.91
2019-04-01T03:14:28.877Z,-0.88
2019-04-01T03:17:35.696Z,-0.94
2019-04-01T03:20:42.848Z,-1.02
2019-04-01T03:23:50.315Z,-1.06
2019-04-01T03:26:58.059Z,-1.16
2019-04-01T03:30:05.814Z,-1.16
2019-04-01T03:33:12.925Z,-1.21
2019-04-01T03:36:20.602Z,-1.23
2019-04-01T03:39:27.726Z,-1.30
2019-04-01T03:42:35.548Z,-1.33
2019-04-01T03:45:43.132Z,-1.45
2019-04-01T03:48:50.258Z,-1.45
2019-04-01T03:51:57.434Z,-1.51
2019-04-01T03:55:03.827Z,-1.51
2019-04-01T03:58:11.252Z,-1.56
2019-04-01T04:01:18.469Z,-1.62
2019-04-01T04:04:25.738Z,-1.64
2019-04-01T04:07:33.100Z,-1.72
2019-04-01T04:10:41.309Z,-1.74
2019-04-01T04:13:48.685Z,-1.80
2019-04-01T04:16:55.630Z,-1.82
2019-04-01T04:20:02.756Z,-1.98
2019-04-01T04:23:09.837Z,-1.98
2019-04-01T04:26:16.970Z,-1.94
2019-04-01T04:29:24.364Z,-1.99
2019-04-01T04:32:31.348Z,-2.01
2019-04-01T04:35:37.586Z,-2.01
2019-04-01T04:38:44.315Z,-2.07
2019-04-01T04:41:51.655Z,-2.20
2019-04-01T04:45:00.398Z,-2.20
2019-04-01T04:48:07.560Z,-2.25
2019-04-01T04:51:15.279Z,-2.36
2019-04-01T04:54:22.997Z,-2.36
2019-04-01T04:57:31.639Z,-2.29
2019-04-01T05:00:38.884Z,-2.41
2019-04-01T05:03:46.297Z,-2.41
2019-04-01T05:06:53.403Z,-2.33
2019-04-01T05:10:01.979Z,-2.29
2019-04-01T05:13:09.278Z,-2.30
2019-04-01T05:16:16.833Z,-2.30
2019-04-01T05:19:24.295Z,-2.27
2019-04-01T05:22:32.207Z,-2.23
2019-04-01T05:25:39.378Z,-2.19
2019-04-01T05:28:46.933Z,-2.15
2019-04-01T05:31:53.903Z,-2.14
2019-04-01T05:35:01.440Z,-2.05
2019-04-01T05:38:08.805Z,-2.03
2019-04-01T05:41:16.400Z,-1.96
2019-04-01T05:44:22.627Z,-1.92
2019-04-01T05:47:30.452Z,-1.84
2019-04-01T05:50:37.268Z,-1.79
2019-04-01T05:53:44.453Z,-1.73
2019-04-01T05:56:52.305Z,-1.68
2019-04-01T05:59:59.752Z,-1.61
2019-04-01T06:03:06.889Z,-1.61
2019-04-01T06:06:15.283Z,-1.46
2019-04-01T06:09:22.417Z,-1.37
2019-04-01T06:12:29.777Z,-1.23
2019-04-01T06:15:37.641Z,-1.23
2019-04-01T06:18:44.753Z,-1.11
2019-04-01T06:21:51.878Z,-0.97
2019-04-01T06:24:59.263Z,-0.86
2019-04-01T06:28:06.317Z,-0.79
2019-04-01T06:31:13.869Z,-0.58
2019-04-01T06:34:21.265Z,-0.39
2019-04-01T06:37:28.548Z,-0.13
2019-04-01T06:40:36.000Z,0.24
2019-04-01T06:43:43.250Z,0.55
2019-04-01T06:46:50.282Z,0.94
2019-04-01T06:49:59.609Z,1.68
2019-04-01T06:53:06.922Z,2.61
2019-04-01T06:56:14.289Z,2.61
2019-04-01T06:59:22.945Z,3.09
2019-04-01T07:02:31.266Z,3.95
2019-04-01T07:05:38.719Z,4.03
2019-04-01T07:08:45.696Z,4.27
2019-04-01T07:11:53.389Z,3.89
2019-04-01T07:15:01.751Z,4.61
2019-04-01T07:18:09.304Z,5.79
2019-04-01T07:21:16.389Z,6.15
2019-04-01T07:24:23.491Z,6.33
2019-04-01T07:27:31.642Z,7.35
2019-04-01T07:30:41.764Z,6.34
2019-04-01T07:33:48.451Z,6.07
2019-04-01T07:36:55.427Z,6.32
2019-04-01T07:40:02.890Z,5.44
2019-04-01T07:43:14.736Z,6.82
2019-04-01T07:46:20.369Z,7.72
2019-04-01T07:49:27.440Z,7.42
2019-04-01T07:52:34.446Z,9.14
2019-04-01T07:55:42.250Z,8.39
2019-04-01T07:58:49.691Z,9.58
2019-04-01T08:01:57.259Z,8.30
2019-04-01T08:05:04.801Z,9.43
2019-04-01T08:08:12.783Z,10.46
2019-04-01T08:11:20.032Z,9.43
2019-04-01T08:14:27.256Z,11.44
2019-04-01T08:17:34.638Z,10.39
2019-04-01T08:20:41.677Z,8.79
2019-04-01T08:23:48.945Z,9.11
2019-04-01T08:26:56.277Z,8.36
2019-04-01T08:30:05.367Z,9.54
2019-04-01T08:33:11.718Z,9.71
2019-04-01T08:36:18.734Z,11.59
2019-04-01T08:39:27.256Z,10.98
2019-04-01T08:42:34.263Z,11.23
2019-04-01T08:45:41.283Z,10.45
2019-04-01T08:48:48.630Z,10.33
2019-04-01T08:51:55.864Z,10.23
2019-04-01T08:55:05.241Z,9.40
2019-04-01T08:58:12.567Z,8.94
2019-04-01T09:01:34.246Z,8.84
2019-04-01T09:04:28.731Z,10.50
2019-04-01T09:07:35.866Z,10.01
2019-04-01T09:10:43.965Z,9.28
2019-04-01T09:13:51.702Z,9.39
2019-04-01T09:16:59.127Z,9.94
2019-04-01T09:20:07.313Z,9.66
2019-04-01T09:23:14.969Z,9.26
2019-04-01T09:26:21.976Z,8.94
2019-04-01T09:29:29.270Z,8.67
2019-04-01T09:32:36.370Z,8.69
2019-04-01T09:35:42.987Z,9.19
2019-04-01T09:38:49.760Z,8.61
2019-04-01T09:41:58.255Z,8.88
2019-04-01T09:45:08.279Z,9.84
2019-04-01T09:48:15.415Z,9.78
2019-04-01T09:51:23.301Z,10.26
2019-04-01T09:54:30.410Z,9.59
2019-04-01T09:57:36.614Z,10.76
2019-04-01T10:00:43.426Z,11.33
2019-04-01T10:04:40.717Z,11.92
2019-04-01T10:07:47.596Z,13.69
2019-04-01T10:10:54.685Z,14.02
2019-04-01T10:14:01.945Z,13.55
2019-04-01T10:17:09.463Z,12.85
2019-04-01T10:20:17.313Z,14.54
2019-04-01T10:23:23.767Z,14.64
2019-04-01T10:26:31.364Z,15.48
2019-04-01T10:29:38.866Z,12.59
2019-04-01T10:32:46.359Z,12.59
2019-04-01T10:35:53.882Z,12.25
2019-04-01T10:39:01.653Z,12.05
2019-04-01T10:42:09.957Z,11.82
2019-04-01T10:45:17.555Z,11.82
2019-04-01T10:48:24.642Z,13.45
2019-04-01T10:51:33.055Z,13.45
2019-04-01T10:54:41.010Z,12.68
2019-04-01T10:57:48.436Z,13.14
2019-04-01T11:00:55.435Z,13.18
2019-04-01T11:04:04.459Z,14.15
2019-04-01T11:07:11.927Z,13.70
2019-04-01T11:10:20.251Z,12.28
2019-04-01T11:13:28.052Z,14.54
2019-04-01T11:16:36.537Z,14.95
2019-04-01T11:19:43.694Z,14.30
2019-04-01T11:22:51.263Z,14.30
2019-04-01T11:25:59.320Z,13.44
2019-04-01T11:29:06.892Z,13.58
2019-04-01T11:32:14.210Z,13.65
2019-04-01T11:35:21.549Z,14.42
2019-04-01T11:38:29.578Z,13.69
2019-04-01T11:41:37.493Z,13.45
2019-04-01T11:44:44.985Z,13.51
2019-04-01T11:47:53.334Z,13.51
2019-04-01T11:51:01.407Z,14.01
2019-04-01T11:54:10.051Z,14.11
2019-04-01T11:57:17.760Z,14.11
2019-04-01T12:00:26.255Z,14.90
2019-04-01T12:03:34.137Z,13.64
2019-04-01T12:06:42.022Z,13.49
2019-04-01T12:09:52.254Z,14.10
2019-04-01T12:12:59.915Z,13.05
2019-04-01T12:16:09.258Z,12.99
2019-04-01T12:19:18.191Z,14.23
2019-04-01T12:22:25.972Z,13.93
2019-04-01T12:25:33.423Z,13.71
2019-04-01T12:28:40.008Z,14.24
2019-04-01T12:31:47.355Z,12.09
2019-04-01T12:34:54.909Z,12.69
2019-04-01T12:38:02.345Z,14.30
2019-04-01T12:41:10.088Z,14.70
2019-04-01T12:44:18.501Z,14.96
2019-04-01T12:47:25.809Z,13.60
2019-04-01T12:50:33.246Z,14.82
2019-04-01T12:53:40.751Z,13.44
2019-04-01T12:56:48.258Z,14.22
2019-04-01T12:59:55.647Z,13.86
2019-04-01T13:03:02.967Z,13.31
2019-04-01T13:06:11.440Z,12.20
2019-04-01T13:09:18.924Z,12.06
2019-04-01T13:12:28.918Z,11.66
2019-04-01T13:15:36.281Z,11.93
2019-04-01T13:18:44.367Z,12.34
2019-04-01T13:21:52.644Z,12.34
2019-04-01T13:25:02.401Z,13.67
2019-04-01T13:28:10.103Z,13.67
2019-04-01T13:31:19.317Z,13.84
2019-04-01T13:34:26.690Z,13.84
2019-04-01T13:37:33.839Z,13.03
2019-04-01T13:40:41.764Z,13.03
2019-04-01T13:43:49.974Z,13.24
2019-04-01T13:46:58.445Z,13.41
2019-04-01T13:50:07.413Z,14.06
2019-04-01T13:53:15.339Z,14.06
2019-04-01T13:56:22.299Z,14.00
2019-04-01T13:59:30.110Z,12.12
2019-04-01T14:02:37.413Z,12.36
2019-04-01T14:05:46.252Z,12.68
2019-04-01T14:08:54.333Z,11.72
2019-04-01T14:12:02.324Z,12.36
2019-04-01T14:15:10.277Z,12.62
2019-04-01T14:18:18.526Z,12.32
2019-04-01T14:21:27.725Z,12.27
2019-04-01T14:24:36.053Z,12.75
2019-04-01T14:27:43.509Z,12.73
2019-04-01T14:30:51.471Z,12.65
2019-04-01T14:34:01.293Z,12.41
2019-04-01T14:37:09.910Z,12.38
2019-04-01T14:40:17.458Z,12.38
2019-04-01T14:43:25.715Z,12.13
2019-04-01T14:46:32.966Z,12.42
2019-04-01T14:49:40.585Z,12.65
2019-04-01T14:52:47.958Z,12.76
2019-04-01T14:55:55.471Z,13.07
2019-04-01T14:59:02.644Z,12.28
2019-04-01T15:02:12.776Z,12.28
2019-04-01T15:05:20.927Z,12.93
2019-04-01T15:08:28.254Z,13.02
2019-04-01T15:11:35.650Z,13.01
2019-04-01T15:14:43.170Z,12.68
2019-04-01T15:17:50.060Z,12.52
2019-04-01T15:20:59.308Z,12.01
2019-04-01T15:24:06.881Z,11.98
2019-04-01T15:27:16.441Z,12.52
2019-04-01T15:30:25.001Z,12.69
2019-04-01T15:33:33.621Z,13.37
2019-04-01T15:36:41.336Z,13.14
2019-04-01T15:39:49.685Z,12.69
2019-04-01T15:42:58.589Z,12.68
2019-04-01T15:46:06.578Z,13.17
2019-04-01T15:49:15.569Z,13.17
2019-04-01T15:52:24.324Z,13.34
2019-04-01T15:55:32.712Z,13.17
2019-04-01T15:58:40.236Z,13.77
2019-04-01T16:01:46.663Z,13.48
2019-04-01T16:04:55.332Z,13.93
2019-04-01T16:08:01.626Z,13.93
2019-04-01T16:11:11.772Z,13.56
2019-04-01T16:14:19.607Z,13.35
2019-04-01T16:17:27.364Z,13.21
2019-04-01T16:20:34.838Z,13.10
2019-04-01T16:23:42.245Z,12.42
2019-04-01T16:26:51.322Z,12.38
2019-04-01T16:29:58.261Z,12.23
2019-04-01T16:33:05.298Z,12.38
2019-04-01T16:36:13.227Z,12.80
2019-04-01T16:39:21.342Z,12.21
2019-04-01T16:42:28.695Z,12.33
2019-04-01T16:45:37.277Z,12.09
2019-04-01T16:48:46.669Z,12.17
2019-04-01T16:51:54.660Z,12.04
2019-04-01T16:55:03.279Z,11.77
2019-04-01T16:58:10.644Z,11.32
2019-04-01T17:01:18.925Z,11.09
2019-04-01T17:04:26.652Z,11.09
2019-04-01T17:07:34.999Z,10.80
2019-04-01T17:10:42.332Z,10.45
2019-04-01T17:13:49.685Z,10.47
2019-04-01T17:16:56.890Z,10.40
2019-04-01T17:20:07.887Z,10.22
2019-04-01T17:23:15.877Z,10.04
2019-04-01T17:26:23.431Z,9.78
2019-04-01T17:29:31.933Z,9.53
2019-04-01T17:32:40.277Z,9.47
2019-04-01T17:35:48.279Z,9.23
2019-04-01T17:38:55.256Z,8.98
2019-04-01T17:42:02.061Z,8.72
2019-04-01T17:45:22.793Z,8.43
2019-04-01T17:48:30.141Z,8.27
2019-04-01T17:51:38.367Z,7.99
2019-04-01T17:54:48.177Z,7.42
2019-04-01T17:57:56.279Z,7.42
2019-04-01T18:01:03.976Z,7.34
2019-04-01T18:04:11.286Z,7.16
2019-04-01T18:07:20.314Z,6.78
2019-04-01T18:10:28.064Z,6.78
2019-04-01T18:13:37.814Z,6.56
2019-04-01T18:16:45.994Z,6.37
2019-04-01T18:19:53.926Z,6.21
2019-04-01T18:23:01.572Z,6.05
2019-04-01T18:26:09.666Z,5.75
2019-04-01T18:29:18.680Z,5.75
2019-04-01T18:32:27.633Z,5.59
2019-04-01T18:35:35.368Z,5.41
2019-04-01T18:38:42.672Z,5.23
2019-04-01T18:41:52.982Z,5.06
2019-04-01T18:45:00.265Z,4.91
2019-04-01T18:48:09.270Z,4.83
2019-04-01T18:51:20.177Z,4.71
2019-04-01T18:54:26.058Z,4.57
2019-04-01T18:57:33.523Z,4.41
2019-04-01T19:00:41.300Z,4.29
2019-04-01T19:03:48.891Z,4.16
2019-04-01T19:06:56.296Z,4.01
2019-04-01T19:10:06.338Z,3.84
2019-04-01T19:13:14.460Z,3.72
2019-04-01T19:16:23.132Z,3.57
2019-04-01T19:19:31.092Z,3.48
2019-04-01T19:22:38.714Z,3.33
2019-04-01T19:25:46.273Z,3.19
2019-04-01T19:28:53.528Z,3.03
2019-04-01T19:32:02.585Z,2.76
2019-04-01T19:35:12.530Z,2.67
2019-04-01T19:38:21.307Z,2.56
2019-04-01T19:41:29.321Z,2.50
2019-04-01T19:44:36.258Z,2.50
2019-04-01T19:47:43.402Z,2.39
2019-04-01T19:50:50.518Z,2.19
2019-04-01T19:53:59.504Z,2.19
2019-04-01T19:57:06.474Z,2.06
2019-04-01T20:00:27.026Z,2.06
2019-04-01T20:03:24.543Z,2.01
2019-04-01T20:06:35.460Z,1.91
2019-04-01T20:09:46.099Z,1.90
2019-04-01T20:12:53.011Z,1.76
2019-04-01T20:16:01.469Z,1.47
2019-04-01T20:19:09.008Z,1.52
2019-04-01T20:22:16.430Z,1.52
2019-04-01T20:25:24.752Z,1.50
2019-04-01T20:28:32.758Z,1.44
2019-04-01T20:31:40.675Z,1.36
2019-04-01T20:34:56.949Z,1.26
2019-04-01T20:37:57.352Z,1.14
2019-04-01T20:41:07.286Z,1.09
2019-04-01T20:44:14.896Z,1.01
2019-04-01T20:47:22.293Z,0.95
2019-04-01T20:50:29.913Z,0.86
2019-04-01T20:53:37.286Z,0.83
2019-04-01T20:56:44.274Z,0.77
2019-04-01T20:59:52.252Z,0.58
2019-04-01T21:03:01.297Z,0.58
2019-04-01T21:06:08.310Z,0.68
2019-04-01T21:09:16.361Z,0.64
2019-04-01T21:12:24.348Z,0.51
2019-04-01T21:15:30.876Z,0.51
2019-04-01T21:18:38.942Z,0.46
2019-04-01T21:21:46.658Z,0.40
2019-04-01T21:24:55.256Z,0.37
2019-04-01T21:28:02.760Z,0.33
2019-04-01T21:31:10.360Z,0.21
2019-04-01T21:34:17.964Z,0.14
2019-04-01T21:37:25.366Z,0.07
2019-04-01T21:40:32.569Z,0.02
2019-04-01T21:43:39.750Z,-0.10
2019-04-01T21:46:47.023Z,-0.10
2019-04-01T21:49:54.294Z,-0.14
2019-04-01T21:53:02.184Z,-0.22
2019-04-01T21:56:10.418Z,-0.25
2019-04-01T21:59:18.068Z,-0.34
2019-04-01T22:02:35.583Z,-0.31
2019-04-01T22:05:34.074Z,-0.35
2019-04-01T22:08:41.334Z,-0.42
2019-04-01T22:11:49.260Z,-0.42
2019-04-01T22:14:56.421Z,-0.45
2019-04-01T22:18:03.495Z,-0.54
2019-04-01T22:21:11.605Z,-0.62
2019-04-01T22:24:19.496Z,-0.67
2019-04-01T22:27:25.985Z,-0.69
2019-04-01T22:30:33.339Z,-0.74
2019-04-01T22:33:40.668Z,-0.79
2019-04-01T22:36:47.739Z,-0.86
2019-04-01T22:39:55.115Z,-0.87
2019-04-01T22:43:02.313Z,-0.93
2019-04-01T22:46:09.406Z,-0.97
2019-04-01T22:49:16.605Z,-1.03
2019-04-01T22:52:23.528Z,-1.03
2019-04-01T22:55:30.735Z,-1.05
2019-04-01T22:58:37.939Z,-1.02
2019-04-01T23:01:45.352Z,-1.02
2019-04-01T23:04:52.967Z,-1.07
2019-04-01T23:08:02.248Z,-1.07
2019-04-01T23:11:08.669Z,-1.14
2019-04-01T23:14:16.295Z,-1.21
2019-04-01T23:17:24.355Z,-1.21
2019-04-01T23:20:33.291Z,-1.24
2019-04-01T23:23:40.327Z,-1.26
2019-04-01T23:26:47.109Z,-1.25
2019-04-01T23:29:54.026Z,-1.31
2019-04-01T23:33:01.302Z,-1.34
2019-04-01T23:36:08.280Z,-1.35
2019-04-01T23:39:15.539Z,-1.35
2019-04-01T23:42:22.904Z,-1.36
2019-04-01T23:45:30.301Z,-1.38
2019-04-01T23:48:38.257Z,-1.46
2019-04-01T23:51:45.281Z,-1.46
2019-04-01T23:54:52.300Z,-1.47
2019-04-01T23:57:58.644Z,-1.46
